sensor_id;sensor_type;location;lat;lon;timestamp;P1;durP1;ratioP1;P2;durP2;ratioP2
28848;SDS011;15981;43.292;-2.888;2022-10-04T00:00:42;17.65;;;9.68;;
28848;SDS011;15981;43.292;-2.888;2022-10-04T00:03:09;17.15;;;10.15;;
28848;SDS011;15981;43.292;-2.888;2022-10-04T00:05:36;16.83;;;9.82;;
28848;SDS011;15981;43.292;-2.888;2022-10-04T00:10:43;16.95;;;10.25;;
28848;SDS011;15981;43.292;-2.888;2022-10-04T00:13:14;20.23;;;10.60;;
28848;SDS011;15981;43.292;-2.888;2022-10-04T00:15:41;16.63;;;10.05;;
28848;SDS011;15981;43.292;-2.888;2022-10-04T00:18:29;17.55;;;10.98;;
28848;SDS011;15981;43.292;-2.888;2022-10-04T00:25:47;18.83;;;9.48;;
28848;SDS011;15981;43.292;-2.888;2022-10-04T00:28:58;16.13;;;9.43;;
28848;SDS011;15981;43.292;-2.888;2022-10-04T00:31:09;15.02;;;9.60;;
28848;SDS011;15981;43.292;-2.888;2022-10-04T00:33:39;14.70;;;9.35;;
28848;SDS011;15981;43.292;-2.888;2022-10-04T00:42:20;15.02;;;9.32;;
28848;SDS011;15981;43.292;-2.888;2022-10-04T00:44:40;15.55;;;9.40;;
28848;SDS011;15981;43.292;-2.888;2022-10-04T00:47:27;15.43;;;8.57;;
28848;SDS011;15981;43.292;-2.888;2022-10-04T00:50:00;14.32;;;8.52;;
28848;SDS011;15981;43.292;-2.888;2022-10-04T00:52:30;14.00;;;8.77;;
28848;SDS011;15981;43.292;-2.888;2022-10-04T00:54:59;13.30;;;9.00;;
28848;SDS011;15981;43.292;-2.888;2022-10-04T00:57:30;14.70;;;9.18;;
28848;SDS011;15981;43.292;-2.888;2022-10-04T00:59:58;13.40;;;8.80;;
28848;SDS011;15981;43.292;-2.888;2022-10-04T01:05:03;14.25;;;8.68;;
28848;SDS011;15981;43.292;-2.888;2022-10-04T01:07:35;15.45;;;9.52;;
28848;SDS011;15981;43.292;-2.888;2022-10-04T01:10:23;16.80;;;9.73;;
28848;SDS011;15981;43.292;-2.888;2022-10-04T01:18:06;16.88;;;10.15;;
28848;SDS011;15981;43.292;-2.888;2022-10-04T01:20:33;15.63;;;10.27;;
28848;SDS011;15981;43.292;-2.888;2022-10-04T01:23:01;16.35;;;10.10;;
28848;SDS011;15981;43.292;-2.888;2022-10-04T01:28:12;17.23;;;9.65;;
28848;SDS011;15981;43.292;-2.888;2022-10-04T01:30:38;16.67;;;10.43;;
28848;SDS011;15981;43.292;-2.888;2022-10-04T01:33:04;14.18;;;10.02;;
28848;SDS011;15981;43.292;-2.888;2022-10-04T01:35:31;18.10;;;10.38;;
28848;SDS011;15981;43.292;-2.888;2022-10-04T01:37:58;17.58;;;10.40;;
28848;SDS011;15981;43.292;-2.888;2022-10-04T01:40:24;17.33;;;10.13;;
28848;SDS011;15981;43.292;-2.888;2022-10-04T01:42:50;17.77;;;9.90;;
28848;SDS011;15981;43.292;-2.888;2022-10-04T01:47:47;15.80;;;10.52;;
28848;SDS011;15981;43.292;-2.888;2022-10-04T01:50:18;16.25;;;10.60;;
28848;SDS011;15981;43.292;-2.888;2022-10-04T01:52:46;14.60;;;9.52;;
28848;SDS011;15981;43.292;-2.888;2022-10-04T01:55:16;15.05;;;9.50;;
28848;SDS011;15981;43.292;-2.888;2022-10-04T01:57:47;13.68;;;9.75;;
28848;SDS011;15981;43.292;-2.888;2022-10-04T02:00:14;15.57;;;10.15;;
28848;SDS011;15981;43.292;-2.888;2022-10-04T02:02:51;16.70;;;10.38;;
28848;SDS011;15981;43.292;-2.888;2022-10-04T02:08:06;18.25;;;10.82;;
28848;SDS011;15981;43.292;-2.888;2022-10-04T02:10:33;13.52;;;9.10;;
28848;SDS011;15981;43.292;-2.888;2022-10-04T02:13:04;13.75;;;8.82;;
28848;SDS011;15981;43.292;-2.888;2022-10-04T02:15:34;15.48;;;8.93;;
28848;SDS011;15981;43.292;-2.888;2022-10-04T02:18:08;14.73;;;9.23;;
28848;SDS011;15981;43.292;-2.888;2022-10-04T02:20:35;17.08;;;9.88;;
28848;SDS011;15981;43.292;-2.888;2022-10-04T02:23:03;13.43;;;9.10;;
28848;SDS011;15981;43.292;-2.888;2022-10-04T02:25:29;15.85;;;9.77;;
28848;SDS011;15981;43.292;-2.888;2022-10-04T02:27:55;16.38;;;9.48;;
28848;SDS011;15981;43.292;-2.888;2022-10-04T02:30:21;14.48;;;8.63;;
28848;SDS011;15981;43.292;-2.888;2022-10-04T02:32:47;16.90;;;9.60;;
28848;SDS011;15981;43.292;-2.888;2022-10-04T02:35:25;14.80;;;9.55;;
28848;SDS011;15981;43.292;-2.888;2022-10-04T02:37:53;15.00;;;9.02;;
28848;SDS011;15981;43.292;-2.888;2022-10-04T02:40:25;16.42;;;9.95;;
28848;SDS011;15981;43.292;-2.888;2022-10-04T02:48:16;13.32;;;8.90;;
28848;SDS011;15981;43.292;-2.888;2022-10-04T02:50:45;13.75;;;9.23;;
28848;SDS011;15981;43.292;-2.888;2022-10-04T02:53:30;14.27;;;8.48;;
28848;SDS011;15981;43.292;-2.888;2022-10-04T02:55:57;13.52;;;8.77;;
28848;SDS011;15981;43.292;-2.888;2022-10-04T02:58:23;14.30;;;8.80;;
28848;SDS011;15981;43.292;-2.888;2022-10-04T03:00:58;16.20;;;9.50;;
28848;SDS011;15981;43.292;-2.888;2022-10-04T03:03:28;15.80;;;9.77;;
28848;SDS011;15981;43.292;-2.888;2022-10-04T03:05:55;19.25;;;11.20;;
28848;SDS011;15981;43.292;-2.888;2022-10-04T03:08:22;14.25;;;8.73;;
28848;SDS011;15981;43.292;-2.888;2022-10-04T03:10:47;13.32;;;8.35;;
28848;SDS011;15981;43.292;-2.888;2022-10-04T03:13:15;12.65;;;8.15;;
28848;SDS011;15981;43.292;-2.888;2022-10-04T03:15:42;13.43;;;8.25;;
28848;SDS011;15981;43.292;-2.888;2022-10-04T03:18:08;12.77;;;8.50;;
28848;SDS011;15981;43.292;-2.888;2022-10-04T03:20:37;13.32;;;8.75;;
28848;SDS011;15981;43.292;-2.888;2022-10-04T03:23:03;13.55;;;8.30;;
28848;SDS011;15981;43.292;-2.888;2022-10-04T03:25:34;12.50;;;7.90;;
28848;SDS011;15981;43.292;-2.888;2022-10-04T03:28:02;11.93;;;8.18;;
28848;SDS011;15981;43.292;-2.888;2022-10-04T03:30:29;12.13;;;8.20;;
28848;SDS011;15981;43.292;-2.888;2022-10-04T03:32:56;14.75;;;8.40;;
28848;SDS011;15981;43.292;-2.888;2022-10-04T03:35:27;12.35;;;8.00;;
28848;SDS011;15981;43.292;-2.888;2022-10-04T03:37:54;10.65;;;8.02;;
28848;SDS011;15981;43.292;-2.888;2022-10-04T03:40:22;9.25;;;7.40;;
28848;SDS011;15981;43.292;-2.888;2022-10-04T03:42:52;9.45;;;6.38;;
28848;SDS011;15981;43.292;-2.888;2022-10-04T03:45:18;9.20;;;6.78;;
28848;SDS011;15981;43.292;-2.888;2022-10-04T03:47:44;11.90;;;7.40;;
28848;SDS011;15981;43.292;-2.888;2022-10-04T03:52:38;10.50;;;7.30;;
28848;SDS011;15981;43.292;-2.888;2022-10-04T03:55:07;10.70;;;7.38;;
28848;SDS011;15981;43.292;-2.888;2022-10-04T03:57:36;10.88;;;7.60;;
28848;SDS011;15981;43.292;-2.888;2022-10-04T04:00:03;10.68;;;7.28;;
28848;SDS011;15981;43.292;-2.888;2022-10-04T04:02:39;11.02;;;6.93;;
28848;SDS011;15981;43.292;-2.888;2022-10-04T04:10:35;10.35;;;7.20;;
28848;SDS011;15981;43.292;-2.888;2022-10-04T04:13:04;9.18;;;6.15;;
28848;SDS011;15981;43.292;-2.888;2022-10-04T04:15:32;9.65;;;6.75;;
28848;SDS011;15981;43.292;-2.888;2022-10-04T04:18:02;10.02;;;6.47;;
28848;SDS011;15981;43.292;-2.888;2022-10-04T04:20:33;9.98;;;6.75;;
28848;SDS011;15981;43.292;-2.888;2022-10-04T04:25:36;8.85;;;6.25;;
28848;SDS011;15981;43.292;-2.888;2022-10-04T04:28:23;7.70;;;6.47;;
28848;SDS011;15981;43.292;-2.888;2022-10-04T04:30:51;8.27;;;6.60;;
28848;SDS011;15981;43.292;-2.888;2022-10-04T04:33:20;10.93;;;7.35;;
28848;SDS011;15981;43.292;-2.888;2022-10-04T04:35:52;9.13;;;6.22;;
28848;SDS011;15981;43.292;-2.888;2022-10-04T04:38:27;9.35;;;6.72;;
28848;SDS011;15981;43.292;-2.888;2022-10-04T04:40:53;10.40;;;6.82;;
28848;SDS011;15981;43.292;-2.888;2022-10-04T04:43:20;11.80;;;7.35;;
28848;SDS011;15981;43.292;-2.888;2022-10-04T04:45:49;8.40;;;6.30;;
28848;SDS011;15981;43.292;-2.888;2022-10-04T04:48:15;9.82;;;6.43;;
28848;SDS011;15981;43.292;-2.888;2022-10-04T04:50:41;10.05;;;6.68;;
28848;SDS011;15981;43.292;-2.888;2022-10-04T04:53:25;10.02;;;7.13;;
28848;SDS011;15981;43.292;-2.888;2022-10-04T04:55:54;10.75;;;7.65;;
28848;SDS011;15981;43.292;-2.888;2022-10-04T04:58:25;10.00;;;7.03;;
28848;SDS011;15981;43.292;-2.888;2022-10-04T05:00:56;9.05;;;6.70;;
28848;SDS011;15981;43.292;-2.888;2022-10-04T05:03:23;9.35;;;6.53;;
28848;SDS011;15981;43.292;-2.888;2022-10-04T05:05:50;10.40;;;6.72;;
28848;SDS011;15981;43.292;-2.888;2022-10-04T05:10:49;10.00;;;6.80;;
28848;SDS011;15981;43.292;-2.888;2022-10-04T05:13:16;11.68;;;7.00;;
28848;SDS011;15981;43.292;-2.888;2022-10-04T05:15:42;9.52;;;6.40;;
28848;SDS011;15981;43.292;-2.888;2022-10-04T05:18:12;9.40;;;6.95;;
28848;SDS011;15981;43.292;-2.888;2022-10-04T05:20:41;11.02;;;7.18;;
28848;SDS011;15981;43.292;-2.888;2022-10-04T05:23:10;10.88;;;7.05;;
28848;SDS011;15981;43.292;-2.888;2022-10-04T05:25:36;9.73;;;7.97;;
28848;SDS011;15981;43.292;-2.888;2022-10-04T05:28:02;8.23;;;6.03;;
28848;SDS011;15981;43.292;-2.888;2022-10-04T05:33:06;9.38;;;6.07;;
28848;SDS011;15981;43.292;-2.888;2022-10-04T05:40:50;8.45;;;5.82;;
28848;SDS011;15981;43.292;-2.888;2022-10-04T05:43:20;7.07;;;5.90;;
28848;SDS011;15981;43.292;-2.888;2022-10-04T05:45:48;8.73;;;6.25;;
28848;SDS011;15981;43.292;-2.888;2022-10-04T05:48:32;8.75;;;6.00;;
28848;SDS011;15981;43.292;-2.888;2022-10-04T05:50:58;8.73;;;6.03;;
28848;SDS011;15981;43.292;-2.888;2022-10-04T05:53:31;7.55;;;5.85;;
28848;SDS011;15981;43.292;-2.888;2022-10-04T05:59:29;8.05;;;5.50;;
28848;SDS011;15981;43.292;-2.888;2022-10-04T06:07:29;9.48;;;6.32;;
28848;SDS011;15981;43.292;-2.888;2022-10-04T06:12:44;12.13;;;7.00;;
28848;SDS011;15981;43.292;-2.888;2022-10-04T06:20:22;9.23;;;6.55;;
28848;SDS011;15981;43.292;-2.888;2022-10-04T06:22:55;10.15;;;6.20;;
28848;SDS011;15981;43.292;-2.888;2022-10-04T06:25:24;11.07;;;7.57;;
28848;SDS011;15981;43.292;-2.888;2022-10-04T06:27:55;9.38;;;6.32;;
28848;SDS011;15981;43.292;-2.888;2022-10-04T06:30:22;10.80;;;7.15;;
28848;SDS011;15981;43.292;-2.888;2022-10-04T06:42:56;12.57;;;8.13;;
28848;SDS011;15981;43.292;-2.888;2022-10-04T06:50:38;10.20;;;6.70;;
28848;SDS011;15981;43.292;-2.888;2022-10-04T07:01:16;9.23;;;6.53;;
28848;SDS011;15981;43.292;-2.888;2022-10-04T07:03:46;10.20;;;6.63;;
28848;SDS011;15981;43.292;-2.888;2022-10-04T07:06:14;10.10;;;7.30;;
28848;SDS011;15981;43.292;-2.888;2022-10-04T07:08:47;11.95;;;7.60;;
28848;SDS011;15981;43.292;-2.888;2022-10-04T07:13:56;11.15;;;7.05;;
28848;SDS011;15981;43.292;-2.888;2022-10-04T07:16:25;11.15;;;7.00;;
28848;SDS011;15981;43.292;-2.888;2022-10-04T07:19:38;9.95;;;6.72;;
28848;SDS011;15981;43.292;-2.888;2022-10-04T07:21:43;12.32;;;7.90;;
28848;SDS011;15981;43.292;-2.888;2022-10-04T07:24:10;10.63;;;6.93;;
28848;SDS011;15981;43.292;-2.888;2022-10-04T07:26:40;11.10;;;7.32;;
28848;SDS011;15981;43.292;-2.888;2022-10-04T07:34:31;9.68;;;6.68;;
28848;SDS011;15981;43.292;-2.888;2022-10-04T07:36:58;15.52;;;8.32;;
28848;SDS011;15981;43.292;-2.888;2022-10-04T07:39:27;14.52;;;9.20;;
28848;SDS011;15981;43.292;-2.888;2022-10-04T07:41:55;15.80;;;8.88;;
28848;SDS011;15981;43.292;-2.888;2022-10-04T07:44:33;15.65;;;9.45;;
28848;SDS011;15981;43.292;-2.888;2022-10-04T07:47:01;16.20;;;9.82;;
28848;SDS011;15981;43.292;-2.888;2022-10-04T07:49:34;15.43;;;10.15;;
28848;SDS011;15981;43.292;-2.888;2022-10-04T07:57:05;8.93;;;6.63;;
28848;SDS011;15981;43.292;-2.888;2022-10-04T07:59:39;12.10;;;7.75;;
28848;SDS011;15981;43.292;-2.888;2022-10-04T08:02:16;11.57;;;7.90;;
28848;SDS011;15981;43.292;-2.888;2022-10-04T08:07:37;12.00;;;7.68;;
28848;SDS011;15981;43.292;-2.888;2022-10-04T08:10:13;12.75;;;7.97;;
28848;SDS011;15981;43.292;-2.888;2022-10-04T08:15:22;14.40;;;8.68;;
28848;SDS011;15981;43.292;-2.888;2022-10-04T08:17:54;13.45;;;9.80;;
28848;SDS011;15981;43.292;-2.888;2022-10-04T08:20:34;19.35;;;12.45;;
28848;SDS011;15981;43.292;-2.888;2022-10-04T08:28:08;40.88;;;24.98;;
28848;SDS011;15981;43.292;-2.888;2022-10-04T08:30:58;46.08;;;26.23;;
28848;SDS011;15981;43.292;-2.888;2022-10-04T08:54:29;40.05;;;24.83;;
28848;SDS011;15981;43.292;-2.888;2022-10-04T09:07:26;83.32;;;60.72;;
28848;SDS011;15981;43.292;-2.888;2022-10-04T09:10:04;48.88;;;34.47;;
28848;SDS011;15981;43.292;-2.888;2022-10-04T09:13:39;37.65;;;27.40;;
28848;SDS011;15981;43.292;-2.888;2022-10-04T09:15:49;38.65;;;26.00;;
28848;SDS011;15981;43.292;-2.888;2022-10-04T09:35:54;59.65;;;35.05;;
28848;SDS011;15981;43.292;-2.888;2022-10-04T09:48:52;19.90;;;11.65;;
28848;SDS011;15981;43.292;-2.888;2022-10-04T09:53:52;16.52;;;9.63;;
28848;SDS011;15981;43.292;-2.888;2022-10-04T10:06:43;12.45;;;6.97;;
28848;SDS011;15981;43.292;-2.888;2022-10-04T10:14:59;10.93;;;7.03;;
28848;SDS011;15981;43.292;-2.888;2022-10-04T10:17:29;11.80;;;7.30;;
28848;SDS011;15981;43.292;-2.888;2022-10-04T10:20:12;11.57;;;6.97;;
28848;SDS011;15981;43.292;-2.888;2022-10-04T10:31:00;11.93;;;7.25;;
28848;SDS011;15981;43.292;-2.888;2022-10-04T10:38:49;10.68;;;6.60;;
28848;SDS011;15981;43.292;-2.888;2022-10-04T10:49:35;12.95;;;7.57;;
28848;SDS011;15981;43.292;-2.888;2022-10-04T10:52:28;11.30;;;7.07;;
28848;SDS011;15981;43.292;-2.888;2022-10-04T10:55:11;14.18;;;7.28;;
28848;SDS011;15981;43.292;-2.888;2022-10-04T11:35:16;8.18;;;4.97;;
28848;SDS011;15981;43.292;-2.888;2022-10-04T11:37:53;7.13;;;4.78;;
28848;SDS011;15981;43.292;-2.888;2022-10-04T11:40:26;10.18;;;5.18;;
28848;SDS011;15981;43.292;-2.888;2022-10-04T11:45:33;7.80;;;4.43;;
28848;SDS011;15981;43.292;-2.888;2022-10-04T11:50:54;6.88;;;4.60;;
28848;SDS011;15981;43.292;-2.888;2022-10-04T11:53:41;5.40;;;4.28;;
28848;SDS011;15981;43.292;-2.888;2022-10-04T12:06:29;8.27;;;5.18;;
28848;SDS011;15981;43.292;-2.888;2022-10-04T12:11:54;7.22;;;5.53;;
28848;SDS011;15981;43.292;-2.888;2022-10-04T12:15:02;6.50;;;5.20;;
28848;SDS011;15981;43.292;-2.888;2022-10-04T12:22:44;9.02;;;5.97;;
28848;SDS011;15981;43.292;-2.888;2022-10-04T12:40:46;9.20;;;5.68;;
28848;SDS011;15981;43.292;-2.888;2022-10-04T12:46:03;7.13;;;5.40;;
28848;SDS011;15981;43.292;-2.888;2022-10-04T12:48:39;9.43;;;5.90;;
28848;SDS011;15981;43.292;-2.888;2022-10-04T12:51:17;8.70;;;5.50;;
28848;SDS011;15981;43.292;-2.888;2022-10-04T13:09:23;9.07;;;5.47;;
28848;SDS011;15981;43.292;-2.888;2022-10-04T13:14:53;9.57;;;6.20;;
28848;SDS011;15981;43.292;-2.888;2022-10-04T13:20:02;7.30;;;5.18;;
28848;SDS011;15981;43.292;-2.888;2022-10-04T13:27:51;10.15;;;6.10;;
28848;SDS011;15981;43.292;-2.888;2022-10-04T13:30:25;7.28;;;5.63;;
28848;SDS011;15981;43.292;-2.888;2022-10-04T13:33:01;8.90;;;5.93;;
28848;SDS011;15981;43.292;-2.888;2022-10-04T13:35:33;11.15;;;6.60;;
28848;SDS011;15981;43.292;-2.888;2022-10-04T13:38:06;9.32;;;6.43;;
28848;SDS011;15981;43.292;-2.888;2022-10-04T13:49:00;10.20;;;6.28;;
28848;SDS011;15981;43.292;-2.888;2022-10-04T13:54:21;10.23;;;6.20;;
28848;SDS011;15981;43.292;-2.888;2022-10-04T13:57:20;9.88;;;6.32;;
28848;SDS011;15981;43.292;-2.888;2022-10-04T14:00:04;8.25;;;5.65;;
28848;SDS011;15981;43.292;-2.888;2022-10-04T14:05:13;11.02;;;6.78;;
28848;SDS011;15981;43.292;-2.888;2022-10-04T14:10:42;11.85;;;8.18;;
28848;SDS011;15981;43.292;-2.888;2022-10-04T14:21:21;13.20;;;9.00;;
28848;SDS011;15981;43.292;-2.888;2022-10-04T14:26:32;12.52;;;7.63;;
28848;SDS011;15981;43.292;-2.888;2022-10-04T14:32:18;9.98;;;6.93;;
28848;SDS011;15981;43.292;-2.888;2022-10-04T14:35:00;10.95;;;6.55;;
28848;SDS011;15981;43.292;-2.888;2022-10-04T15:01:18;7.60;;;5.13;;
28848;SDS011;15981;43.292;-2.888;2022-10-04T15:04:06;7.32;;;5.28;;
28848;SDS011;15981;43.292;-2.888;2022-10-04T15:14:28;7.20;;;4.90;;
28848;SDS011;15981;43.292;-2.888;2022-10-04T15:16:59;5.93;;;4.47;;
28848;SDS011;15981;43.292;-2.888;2022-10-04T15:19:27;7.18;;;5.00;;
28848;SDS011;15981;43.292;-2.888;2022-10-04T15:24:21;7.03;;;4.93;;
28848;SDS011;15981;43.292;-2.888;2022-10-04T15:34:41;9.23;;;5.30;;
28848;SDS011;15981;43.292;-2.888;2022-10-04T16:00:51;8.15;;;5.28;;
28848;SDS011;15981;43.292;-2.888;2022-10-04T16:03:43;6.72;;;4.97;;
28848;SDS011;15981;43.292;-2.888;2022-10-04T16:06:24;9.13;;;5.20;;
28848;SDS011;15981;43.292;-2.888;2022-10-04T16:19:46;9.82;;;6.43;;
28848;SDS011;15981;43.292;-2.888;2022-10-04T16:22:25;8.55;;;6.13;;
28848;SDS011;15981;43.292;-2.888;2022-10-04T16:25:37;8.90;;;6.05;;
28848;SDS011;15981;43.292;-2.888;2022-10-04T16:30:05;9.27;;;6.18;;
28848;SDS011;15981;43.292;-2.888;2022-10-04T16:32:43;9.32;;;6.05;;
28848;SDS011;15981;43.292;-2.888;2022-10-04T16:35:14;9.52;;;6.47;;
28848;SDS011;15981;43.292;-2.888;2022-10-04T16:42:55;9.00;;;5.85;;
28848;SDS011;15981;43.292;-2.888;2022-10-04T16:53:41;11.27;;;7.60;;
28848;SDS011;15981;43.292;-2.888;2022-10-04T16:56:15;10.18;;;7.00;;
28848;SDS011;15981;43.292;-2.888;2022-10-04T16:58:50;10.07;;;7.15;;
28848;SDS011;15981;43.292;-2.888;2022-10-04T17:03:53;11.13;;;7.00;;
28848;SDS011;15981;43.292;-2.888;2022-10-04T17:19:11;10.25;;;7.10;;
28848;SDS011;15981;43.292;-2.888;2022-10-04T17:21:52;9.50;;;7.32;;
28848;SDS011;15981;43.292;-2.888;2022-10-04T17:29:53;14.45;;;8.70;;
28848;SDS011;15981;43.292;-2.888;2022-10-04T17:32:43;13.30;;;9.95;;
28848;SDS011;15981;43.292;-2.888;2022-10-04T17:37:57;13.15;;;9.32;;
28848;SDS011;15981;43.292;-2.888;2022-10-04T17:41:11;18.70;;;10.82;;
28848;SDS011;15981;43.292;-2.888;2022-10-04T17:43:26;15.20;;;11.23;;
28848;SDS011;15981;43.292;-2.888;2022-10-04T17:46:16;17.00;;;11.88;;
28848;SDS011;15981;43.292;-2.888;2022-10-04T17:48:57;16.83;;;11.20;;
28848;SDS011;15981;43.292;-2.888;2022-10-04T17:51:46;19.65;;;12.48;;
28848;SDS011;15981;43.292;-2.888;2022-10-04T17:54:44;17.75;;;11.85;;
28848;SDS011;15981;43.292;-2.888;2022-10-04T17:57:35;16.70;;;12.05;;
28848;SDS011;15981;43.292;-2.888;2022-10-04T18:00:13;18.33;;;12.48;;
28848;SDS011;15981;43.292;-2.888;2022-10-04T18:03:00;20.75;;;13.18;;
28848;SDS011;15981;43.292;-2.888;2022-10-04T18:05:32;22.15;;;14.35;;
28848;SDS011;15981;43.292;-2.888;2022-10-04T18:08:33;23.08;;;13.90;;
28848;SDS011;15981;43.292;-2.888;2022-10-04T18:11:04;24.40;;;15.43;;
28848;SDS011;15981;43.292;-2.888;2022-10-04T18:13:36;22.55;;;14.75;;
28848;SDS011;15981;43.292;-2.888;2022-10-04T18:16:08;26.55;;;15.35;;
28848;SDS011;15981;43.292;-2.888;2022-10-04T18:18:39;25.00;;;15.40;;
28848;SDS011;15981;43.292;-2.888;2022-10-04T18:21:17;25.15;;;16.23;;
28848;SDS011;15981;43.292;-2.888;2022-10-04T18:24:00;26.85;;;16.45;;
28848;SDS011;15981;43.292;-2.888;2022-10-04T18:26:37;23.40;;;15.50;;
28848;SDS011;15981;43.292;-2.888;2022-10-04T18:29:17;26.92;;;16.42;;
28848;SDS011;15981;43.292;-2.888;2022-10-04T18:31:59;24.63;;;16.30;;
28848;SDS011;15981;43.292;-2.888;2022-10-04T18:34:29;25.02;;;16.77;;
28848;SDS011;15981;43.292;-2.888;2022-10-04T18:37:03;27.58;;;16.67;;
28848;SDS011;15981;43.292;-2.888;2022-10-04T18:39:30;27.20;;;16.58;;
28848;SDS011;15981;43.292;-2.888;2022-10-04T18:42:18;27.23;;;16.50;;
28848;SDS011;15981;43.292;-2.888;2022-10-04T18:44:46;29.70;;;17.77;;
28848;SDS011;15981;43.292;-2.888;2022-10-04T18:47:17;31.92;;;17.80;;
28848;SDS011;15981;43.292;-2.888;2022-10-04T18:49:50;26.08;;;16.42;;
28848;SDS011;15981;43.292;-2.888;2022-10-04T19:00:19;27.40;;;16.90;;
28848;SDS011;15981;43.292;-2.888;2022-10-04T19:03:12;27.75;;;17.70;;
28848;SDS011;15981;43.292;-2.888;2022-10-04T19:11:22;29.77;;;18.35;;
28848;SDS011;15981;43.292;-2.888;2022-10-04T19:13:52;29.95;;;18.63;;
28848;SDS011;15981;43.292;-2.888;2022-10-04T19:21:32;32.50;;;19.40;;
28848;SDS011;15981;43.292;-2.888;2022-10-04T19:24:11;34.40;;;20.50;;
28848;SDS011;15981;43.292;-2.888;2022-10-04T19:26:40;32.03;;;18.35;;
28848;SDS011;15981;43.292;-2.888;2022-10-04T19:31:57;26.75;;;16.23;;
28848;SDS011;15981;43.292;-2.888;2022-10-04T19:42:54;27.48;;;17.13;;
28848;SDS011;15981;43.292;-2.888;2022-10-04T19:45:30;25.60;;;16.55;;
28848;SDS011;15981;43.292;-2.888;2022-10-04T19:48:00;33.88;;;18.65;;
28848;SDS011;15981;43.292;-2.888;2022-10-04T19:50:27;29.70;;;18.50;;
28848;SDS011;15981;43.292;-2.888;2022-10-04T19:55:23;29.50;;;18.38;;
28848;SDS011;15981;43.292;-2.888;2022-10-04T20:00:36;25.10;;;16.13;;
28848;SDS011;15981;43.292;-2.888;2022-10-04T20:03:04;27.20;;;16.25;;
28848;SDS011;15981;43.292;-2.888;2022-10-04T20:05:34;25.02;;;15.00;;
28848;SDS011;15981;43.292;-2.888;2022-10-04T20:08:07;23.20;;;14.93;;
28848;SDS011;15981;43.292;-2.888;2022-10-04T20:10:36;27.02;;;15.30;;
28848;SDS011;15981;43.292;-2.888;2022-10-04T20:13:04;25.67;;;15.88;;
28848;SDS011;15981;43.292;-2.888;2022-10-04T20:17:59;23.65;;;14.68;;
28848;SDS011;15981;43.292;-2.888;2022-10-04T20:23:07;21.60;;;14.13;;
28848;SDS011;15981;43.292;-2.888;2022-10-04T20:28:07;25.00;;;16.38;;
28848;SDS011;15981;43.292;-2.888;2022-10-04T20:30:46;26.65;;;16.80;;
28848;SDS011;15981;43.292;-2.888;2022-10-04T20:33:39;23.95;;;15.52;;
28848;SDS011;15981;43.292;-2.888;2022-10-04T20:35:59;24.45;;;15.45;;
28848;SDS011;15981;43.292;-2.888;2022-10-04T20:38:41;30.30;;;17.38;;
28848;SDS011;15981;43.292;-2.888;2022-10-04T20:41:40;27.50;;;14.95;;
28848;SDS011;15981;43.292;-2.888;2022-10-04T20:47:02;28.30;;;17.30;;
28848;SDS011;15981;43.292;-2.888;2022-10-04T20:49:29;25.83;;;15.80;;
28848;SDS011;15981;43.292;-2.888;2022-10-04T20:51:54;21.17;;;14.60;;
28848;SDS011;15981;43.292;-2.888;2022-10-04T20:54:20;26.45;;;16.85;;
28848;SDS011;15981;43.292;-2.888;2022-10-04T20:56:47;33.03;;;19.35;;
28848;SDS011;15981;43.292;-2.888;2022-10-04T20:59:14;32.63;;;20.10;;
28848;SDS011;15981;43.292;-2.888;2022-10-04T21:01:41;32.08;;;19.63;;
28848;SDS011;15981;43.292;-2.888;2022-10-04T21:06:52;27.50;;;17.75;;
28848;SDS011;15981;43.292;-2.888;2022-10-04T21:09:18;27.48;;;16.67;;
28848;SDS011;15981;43.292;-2.888;2022-10-04T21:11:44;34.80;;;19.02;;
28848;SDS011;15981;43.292;-2.888;2022-10-04T21:14:23;31.75;;;18.52;;
28848;SDS011;15981;43.292;-2.888;2022-10-04T21:16:50;28.88;;;18.13;;
28848;SDS011;15981;43.292;-2.888;2022-10-04T21:21:54;32.95;;;19.52;;
28848;SDS011;15981;43.292;-2.888;2022-10-04T21:24:31;36.33;;;19.75;;
28848;SDS011;15981;43.292;-2.888;2022-10-04T21:26:58;35.17;;;18.45;;
28848;SDS011;15981;43.292;-2.888;2022-10-04T21:29:23;35.58;;;20.52;;
28848;SDS011;15981;43.292;-2.888;2022-10-04T21:31:49;28.88;;;17.40;;
28848;SDS011;15981;43.292;-2.888;2022-10-04T21:34:15;29.75;;;17.58;;
28848;SDS011;15981;43.292;-2.888;2022-10-04T21:36:40;27.55;;;16.65;;
28848;SDS011;15981;43.292;-2.888;2022-10-04T21:39:06;30.83;;;17.45;;
28848;SDS011;15981;43.292;-2.888;2022-10-04T21:41:32;29.52;;;18.55;;
28848;SDS011;15981;43.292;-2.888;2022-10-04T21:43:58;33.60;;;20.17;;
28848;SDS011;15981;43.292;-2.888;2022-10-04T21:46:23;32.38;;;18.73;;
28848;SDS011;15981;43.292;-2.888;2022-10-04T21:48:49;30.33;;;19.08;;
28848;SDS011;15981;43.292;-2.888;2022-10-04T21:51:15;31.48;;;19.40;;
28848;SDS011;15981;43.292;-2.888;2022-10-04T21:53:41;33.55;;;20.17;;
28848;SDS011;15981;43.292;-2.888;2022-10-04T21:56:06;34.53;;;18.92;;
28848;SDS011;15981;43.292;-2.888;2022-10-04T21:58:32;29.98;;;17.92;;
28848;SDS011;15981;43.292;-2.888;2022-10-04T22:00:58;32.17;;;19.88;;
28848;SDS011;15981;43.292;-2.888;2022-10-04T22:03:24;34.83;;;20.52;;
28848;SDS011;15981;43.292;-2.888;2022-10-04T22:05:49;34.13;;;20.15;;
28848;SDS011;15981;43.292;-2.888;2022-10-04T22:08:15;29.98;;;18.52;;
28848;SDS011;15981;43.292;-2.888;2022-10-04T22:10:41;34.67;;;19.63;;
28848;SDS011;15981;43.292;-2.888;2022-10-04T22:13:08;34.75;;;20.55;;
28848;SDS011;15981;43.292;-2.888;2022-10-04T22:15:33;34.08;;;20.85;;
28848;SDS011;15981;43.292;-2.888;2022-10-04T22:17:59;35.80;;;20.88;;
28848;SDS011;15981;43.292;-2.888;2022-10-04T22:20:25;37.17;;;23.02;;
28848;SDS011;15981;43.292;-2.888;2022-10-04T22:22:52;36.15;;;23.17;;
28848;SDS011;15981;43.292;-2.888;2022-10-04T22:25:18;38.72;;;22.15;;
28848;SDS011;15981;43.292;-2.888;2022-10-04T22:27:44;34.65;;;21.60;;
28848;SDS011;15981;43.292;-2.888;2022-10-04T22:30:16;34.47;;;19.60;;
28848;SDS011;15981;43.292;-2.888;2022-10-04T22:32:42;32.53;;;19.70;;
28848;SDS011;15981;43.292;-2.888;2022-10-04T22:35:11;31.67;;;19.92;;
28848;SDS011;15981;43.292;-2.888;2022-10-04T22:37:37;32.80;;;19.52;;
28848;SDS011;15981;43.292;-2.888;2022-10-04T22:40:05;33.72;;;21.05;;
28848;SDS011;15981;43.292;-2.888;2022-10-04T22:42:31;33.22;;;19.58;;
28848;SDS011;15981;43.292;-2.888;2022-10-04T22:44:59;34.42;;;19.33;;
28848;SDS011;15981;43.292;-2.888;2022-10-04T22:47:25;34.13;;;20.02;;
28848;SDS011;15981;43.292;-2.888;2022-10-04T22:49:51;33.65;;;18.30;;
28848;SDS011;15981;43.292;-2.888;2022-10-04T22:52:19;28.65;;;17.90;;
28848;SDS011;15981;43.292;-2.888;2022-10-04T22:54:46;30.25;;;19.08;;
28848;SDS011;15981;43.292;-2.888;2022-10-04T22:57:13;29.73;;;17.65;;
28848;SDS011;15981;43.292;-2.888;2022-10-04T22:59:49;31.50;;;17.98;;
28848;SDS011;15981;43.292;-2.888;2022-10-04T23:02:16;29.25;;;18.52;;
28848;SDS011;15981;43.292;-2.888;2022-10-04T23:04:43;29.85;;;17.42;;
28848;SDS011;15981;43.292;-2.888;2022-10-04T23:07:09;28.42;;;17.35;;
28848;SDS011;15981;43.292;-2.888;2022-10-04T23:09:35;26.85;;;16.38;;
28848;SDS011;15981;43.292;-2.888;2022-10-04T23:12:01;26.80;;;16.45;;
28848;SDS011;15981;43.292;-2.888;2022-10-04T23:14:27;30.38;;;16.98;;
28848;SDS011;15981;43.292;-2.888;2022-10-04T23:16:52;25.73;;;15.25;;
28848;SDS011;15981;43.292;-2.888;2022-10-04T23:19:18;27.45;;;16.40;;
28848;SDS011;15981;43.292;-2.888;2022-10-04T23:21:45;29.35;;;17.35;;
28848;SDS011;15981;43.292;-2.888;2022-10-04T23:24:12;25.52;;;16.50;;
28848;SDS011;15981;43.292;-2.888;2022-10-04T23:26:40;25.85;;;16.25;;